createdAt,value
2016-07-24T15:12:21.364Z,430
2016-07-24T15:17:20.636Z,455
2016-07-24T15:22:20.604Z,465
2016-07-24T15:27:20.596Z,490
2016-07-24T15:32:52.938Z,485
2016-07-24T15:37:21.241Z,480
2016-07-24T15:42:21.215Z,510
2016-07-24T15:47:20.502Z,525
2016-07-24T15:52:20.481Z,435
2016-07-24T15:57:20.460Z,415
2016-07-24T16:02:21.337Z,380
2016-07-24T16:07:19.728Z,360
2016-07-24T16:12:20.413Z,330
2016-07-24T16:17:21.097Z,345
2016-07-24T16:22:21.064Z,345
2016-07-24T16:27:21.043Z,370
2016-07-24T16:32:21.026Z,385
2016-07-24T16:37:19.597Z,370
2016-07-24T16:42:20.977Z,350
2016-07-24T16:47:20.262Z,310
2016-07-24T16:52:20.236Z,275
2016-07-24T16:57:20.924Z,245
2016-07-24T17:02:19.507Z,240
2016-07-24T17:07:20.888Z,225
2016-07-24T17:12:20.859Z,225
2016-07-24T17:17:20.823Z,220
2016-07-24T17:22:20.826Z,205
2016-07-24T17:27:20.103Z,215
2016-07-24T17:32:20.071Z,225
2016-07-24T17:37:20.051Z,190
2016-07-24T17:42:20.927Z,180
2016-07-24T17:47:20.706Z,170
2016-07-24T17:52:19.992Z,170
2016-07-24T17:57:20.180Z,180
2016-07-24T18:02:20.653Z,160
2016-07-24T18:07:20.635Z,155
2016-07-24T18:12:20.611Z,140
2016-07-24T18:17:20.591Z,135
2016-07-24T18:22:20.588Z,120
2016-07-24T18:27:20.542Z,110
2016-07-24T18:32:18.426Z,100
2016-07-24T21:10:15.798Z,0
2016-07-24T21:15:15.727Z,0
2016-07-24T21:20:15.688Z,0
2016-07-24T21:25:14.954Z,0
